Time;durP1;ratioP1;P1;durP2;ratioP2;P2;SDS_P1;SDS_P2;PMS_P1;PMS_P2;Temp;Humidity;BMP_temperature;BMP_pressure;BME280_temperature;BME280_humidity;BME280_pressure;Samples;Min_cycle;Max_cycle;Signal;HPM_P1;HPM_P2
2023/04/18 00:01:37;;;;;;;;;63.50;46.75;;;;;12.58;61.70;101875.31;5086217;27;45418;-69
2023/04/18 00:04:05;;;;;;;;;64.75;46.25;;;;;12.57;61.91;101870.91;5080371;27;45324;-68
2023/04/18 00:06:31;;;;;;;;;59.50;46.25;;;;;12.56;61.88;101871.78;5077953;27;45387;-69
2023/04/18 00:08:57;;;;;;;;;59.25;45.00;;;;;12.55;62.05;101865.63;5078284;27;45390;-67
2023/04/18 00:11:22;;;;;;;;;62.00;47.00;;;;;12.55;61.81;101865.63;5089312;27;45353;-68
2023/04/18 00:13:59;;;;;;;;;57.25;44.50;;;;;12.50;61.40;101862.06;5058806;27;45692;-68
2023/04/18 00:16:29;;;;;;;;;66.50;48.75;;;;;12.49;62.06;101860.31;5071790;27;45957;-71
2023/04/18 00:18:55;;;;;;;;;71.00;52.25;;;;;12.48;61.65;101863.78;5062630;27;45539;-68
2023/04/18 00:21:21;;;;;;;;;64.50;49.50;;;;;12.17;62.52;101826.66;5093668;27;45372;-69
2023/04/18 00:23:46;;;;;;;;;72.50;52.50;;;;;12.36;62.77;101867.13;5064242;27;45580;-67
2023/04/18 00:26:12;;;;;;;;;66.50;48.50;;;;;12.30;62.49;101861.81;5052056;28;46833;-69
2023/04/18 00:28:38;;;;;;;;;62.50;46.00;;;;;12.25;62.35;101864.38;5089989;27;45503;-68
2023/04/18 00:31:03;;;;;;;;;67.25;51.25;;;;;12.18;62.88;101857.28;5057342;27;45594;-67
2023/04/18 00:33:29;;;;;;;;;68.75;51.50;;;;;12.17;62.94;101862.50;5069394;27;45467;-73
2023/04/18 00:35:54;;;;;;;;;59.50;45.50;;;;;12.17;62.69;101865.13;5070036;27;45464;-71
2023/04/18 00:38:20;;;;;;;;;67.50;49.25;;;;;12.10;63.05;101856.28;5087001;27;45617;-73
2023/04/18 00:40:45;;;;;;;;;67.50;49.00;;;;;12.09;63.02;101851.91;5052599;27;45506;-72
2023/04/18 00:43:15;;;;;;;;;65.00;46.50;;;;;12.18;62.74;101866.94;5053061;27;45522;-68
2023/04/18 00:45:41;;;;;;;;;63.25;49.50;;;;;12.16;63.15;101861.63;5053733;27;45675;-69
2023/04/18 00:48:08;;;;;;;;;72.00;52.25;;;;;12.15;63.15;101870.38;5054785;28;45425;-70
2023/04/18 00:50:36;;;;;;;;;61.25;47.75;;;;;12.11;62.69;101850.19;5058919;28;45501;-71
2023/04/18 00:53:02;;;;;;;;;66.00;47.50;;;;;12.11;62.58;101850.19;5055986;27;45851;-72
2023/04/18 00:55:28;;;;;;;;;71.75;51.00;;;;;12.04;62.59;101830.84;5053169;27;46598;-67
2023/04/18 00:57:54;;;;;;;;;63.75;49.00;;;;;12.12;62.90;101844.06;5052107;27;45906;-68
2023/04/18 01:00:20;;;;;;;;;63.50;48.00;;;;;12.09;62.95;101846.66;5052753;28;45336;-73
2023/04/18 01:02:48;;;;;;;;;72.00;56.00;;;;;11.96;63.25;101837.75;5057240;27;45784;-71
2023/04/18 01:05:14;;;;;;;;;69.25;51.75;;;;;11.98;63.17;101843.91;5056651;28;46166;-70
2023/04/18 01:07:40;;;;;;;;;67.00;48.75;;;;;11.88;63.75;101834.13;5056634;28;45503;-69
2023/04/18 01:10:07;;;;;;;;;62.50;47.75;;;;;11.92;63.31;101828.06;5059420;27;45323;-69
2023/04/18 01:12:33;;;;;;;;;52.50;42.75;;;;;12.05;62.86;101839.59;5060568;27;45490;-70
2023/04/18 01:14:59;;;;;;;;;62.00;47.75;;;;;12.03;62.58;101817.69;5060378;27;46595;-68
2023/04/18 01:17:27;;;;;;;;;62.75;47.50;;;;;12.04;62.82;101822.09;5056802;27;45314;-66
2023/04/18 01:19:52;;;;;;;;;61.75;48.50;;;;;12.11;62.96;101834.44;5088243;27;45688;-72
2023/04/18 01:22:19;;;;;;;;;67.50;47.50;;;;;12.09;62.59;101823.91;5055738;27;45753;-69
2023/04/18 01:24:44;;;;;;;;;60.50;47.75;;;;;12.06;62.86;101810.75;5059250;27;46200;-70
2023/04/18 01:27:12;;;;;;;;;65.50;49.00;;;;;12.14;62.43;101826.59;5055899;27;45443;-72
2023/04/18 01:29:38;;;;;;;;;62.00;48.50;;;;;12.08;62.74;101808.16;5055377;27;45529;-73
2023/04/18 01:32:04;;;;;;;;;72.50;54.00;;;;;12.16;62.34;101814.38;5071459;27;45287;-71
2023/04/18 01:34:30;;;;;;;;;66.50;49.25;;;;;12.04;63.26;101806.34;5075995;27;47841;-71
2023/04/18 01:36:55;;;;;;;;;69.00;48.25;;;;;12.09;62.78;101813.41;5076147;27;45432;-71
2023/04/18 01:39:21;;;;;;;;;67.75;50.50;;;;;12.02;63.05;101808.94;5075962;27;45884;-71
2023/04/18 01:41:46;;;;;;;;;63.00;49.00;;;;;12.00;63.17;101804.53;5077372;27;45451;-68
2023/04/18 01:44:12;;;;;;;;;65.00;49.75;;;;;12.05;63.12;101815.97;5078562;27;46081;-68
2023/04/18 01:46:38;;;;;;;;;64.25;48.00;;;;;12.02;63.01;101810.69;5091407;27;45502;-69
2023/04/18 01:49:08;;;;;;;;;60.75;46.00;;;;;12.06;62.67;101815.13;5076331;27;45430;-67
2023/04/18 01:51:34;;;;;;;;;61.75;46.50;;;;;11.85;62.94;101790.28;5091795;27;45426;-70
2023/04/18 01:54:00;;;;;;;;;76.75;53.75;;;;;11.99;63.03;101811.53;5091991;27;47200;-69
2023/04/18 01:56:25;;;;;;;;;72.75;56.00;;;;;11.97;63.51;101808.00;5079151;27;45348;-68
2023/04/18 01:58:51;;;;;;;;;70.75;53.25;;;;;11.86;63.68;101804.28;5075668;27;45382;-70
2023/04/18 02:01:16;;;;;;;;;70.50;53.00;;;;;11.79;63.15;101791.94;5094069;27;45539;-70
2023/04/18 02:03:42;;;;;;;;;66.50;50.00;;;;;11.86;64.07;101810.44;5079789;27;45945;-67
2023/04/18 02:06:08;;;;;;;;;70.75;52.00;;;;;11.88;63.57;101803.47;5076131;27;45365;-68
2023/04/18 02:08:34;;;;;;;;;69.25;50.75;;;;;11.86;63.41;101807.81;5075580;27;45538;-67
2023/04/18 02:11:01;;;;;;;;;69.50;52.00;;;;;11.83;63.54;101804.25;5076358;27;45520;-70
2023/04/18 02:13:27;;;;;;;;;68.75;50.75;;;;;11.83;63.70;101810.38;5091284;27;45566;-67
2023/04/18 02:15:52;;;;;;;;;71.75;53.25;;;;;11.75;63.83;101795.41;5074490;27;45476;-70
2023/04/18 02:18:23;;;;;;;;;63.25;44.75;;;;;11.85;63.45;101807.78;5091186;27;45466;-68
2023/04/18 02:20:50;;;;;;;;;64.75;49.25;;;;;11.79;63.82;101797.19;5091311;27;45435;-68
2023/04/18 02:23:16;;;;;;;;;63.50;49.25;;;;;11.84;63.52;101798.13;5078630;27;46261;-72
2023/04/18 02:25:42;;;;;;;;;67.75;51.00;;;;;11.78;63.77;101800.69;5075368;27;45487;-68
2023/04/18 02:28:08;;;;;;;;;70.75;52.00;;;;;11.84;63.44;101795.50;5075600;27;45448;-68
2023/04/18 02:30:34;;;;;;;;;67.75;54.00;;;;;11.77;63.69;101796.28;5076799;27;45840;-68
2023/04/18 02:32:59;;;;;;;;;68.50;50.00;;;;;11.78;63.74;101795.44;5075208;27;45519;-68
2023/04/18 02:35:26;;;;;;;;;68.00;50.00;;;;;11.79;63.47;101798.09;5075659;28;45679;-67
2023/04/18 02:37:51;;;;;;;;;68.50;50.50;;;;;11.81;63.86;101811.22;5075230;27;45401;-69
2023/04/18 02:40:18;;;;;;;;;65.00;50.25;;;;;11.78;63.42;101796.31;5076497;27;45528;-69
2023/04/18 02:42:44;;;;;;;;;63.50;50.75;;;;;11.72;63.19;101793.63;5092842;27;45586;-67
2023/04/18 02:45:12;;;;;;;;;73.75;54.50;;;;;11.76;63.33;101798.03;5091061;27;45929;-68
2023/04/18 02:47:38;;;;;;;;;65.00;51.25;;;;;11.74;63.72;101802.38;5072100;28;45812;-69
2023/04/18 02:50:05;;;;;;;;;69.75;50.75;;;;;11.74;63.55;101791.88;5075307;28;45438;-70
2023/04/18 02:52:30;;;;;;;;;67.50;53.00;;;;;11.73;63.24;101787.50;5075372;27;46864;-68
2023/04/18 02:54:56;;;;;;;;;68.25;52.50;;;;;11.74;62.90;101786.63;5075053;28;45567;-68
2023/04/18 02:57:21;;;;;;;;;63.75;50.50;;;;;11.72;62.88;101785.75;5090481;27;45491;-68
2023/04/18 02:59:47;;;;;;;;;70.00;50.75;;;;;11.73;63.23;101778.75;5075490;28;45568;-68
2023/04/18 03:02:12;;;;;;;;;76.00;54.25;;;;;11.74;63.42;101777.88;5074768;28;46727;-66
2023/04/18 03:04:38;;;;;;;;;69.50;53.25;;;;;11.73;63.11;101773.50;5064930;28;45437;-68
2023/04/18 03:07:03;;;;;;;;;67.25;52.00;;;;;11.74;63.01;101760.38;5071001;28;45489;-67
2023/04/18 03:09:29;;;;;;;;;69.25;50.50;;;;;11.76;62.78;101777.03;5078968;28;45425;-69
2023/04/18 03:11:54;;;;;;;;;78.25;58.75;;;;;11.79;62.53;101778.81;5076925;28;46204;-66
2023/04/18 03:14:20;;;;;;;;;77.25;55.00;;;;;11.69;63.19;101772.56;5073834;27;45377;-71
2023/04/18 03:16:46;;;;;;;;;74.25;57.50;;;;;11.68;63.01;101782.19;5077547;28;45381;-70
2023/04/18 03:19:11;;;;;;;;;68.25;51.00;;;;;11.64;62.87;101782.13;5074816;28;45496;-66
2023/04/18 03:21:37;;;;;;;;;67.75;51.00;;;;;11.58;63.11;101775.06;5065341;28;45799;-71
2023/04/18 03:24:02;;;;;;;;;69.75;52.75;;;;;11.65;62.83;101787.41;5068641;28;45394;-70
2023/04/18 03:26:29;;;;;;;;;67.75;50.50;;;;;11.66;62.52;101789.16;5090270;27;45590;-67
2023/04/18 03:28:55;;;;;;;;;72.75;53.50;;;;;11.60;62.58;101781.22;5076863;28;45453;-69
2023/04/18 03:31:21;;;;;;;;;63.25;48.50;;;;;11.63;62.77;101785.63;5077401;28;45670;-71
2023/04/18 03:33:47;;;;;;;;;71.75;53.25;;;;;11.63;62.36;101786.50;5075334;28;45968;-70
2023/04/18 03:36:16;;;;;;;;;70.25;51.25;;;;;11.63;62.84;101775.13;5074502;28;45411;-68
2023/04/18 03:38:41;;;;;;;;;69.25;50.00;;;;;11.66;62.85;101788.28;5074385;27;45406;-68
2023/04/18 03:41:07;;;;;;;;;68.25;49.75;;;;;11.64;62.95;101776.88;5072316;28;45554;-69
2023/04/18 03:43:32;;;;;;;;;71.00;51.50;;;;;11.67;62.78;101782.16;5072620;28;45590;-70
2023/04/18 03:45:58;;;;;;;;;67.25;53.25;;;;;11.69;62.41;101785.69;5073131;27;45457;-69
2023/04/18 03:48:24;;;;;;;;;74.00;53.00;;;;;11.63;62.34;101778.63;5073965;27;45653;-73
2023/04/18 03:50:49;;;;;;;;;68.25;52.25;;;;;11.68;62.72;101778.69;5073279;28;47201;-72
2023/04/18 03:53:15;;;;;;;;;66.00;50.50;;;;;11.69;62.26;101783.06;5078317;28;45287;-70
2023/04/18 03:55:42;;;;;;;;;69.25;49.75;;;;;11.68;62.76;101781.31;5068947;27;45452;-70
2023/04/18 03:58:08;;;;;;;;;66.75;53.25;;;;;11.67;62.37;101779.53;5068608;28;45551;-69
2023/04/18 04:00:34;;;;;;;;;71.75;51.75;;;;;11.62;63.10;101783.84;5078398;28;45334;-68
2023/04/18 04:03:00;;;;;;;;;65.75;51.50;;;;;11.59;62.70;101774.19;5078492;28;45617;-69
2023/04/18 04:05:26;;;;;;;;;67.00;51.50;;;;;11.61;63.04;101782.09;5094231;27;45502;-67
2023/04/18 04:07:51;;;;;;;;;67.50;49.00;;;;;11.53;63.13;101770.59;5076501;28;45510;-68
2023/04/18 04:10:17;;;;;;;;;66.25;50.00;;;;;11.52;62.86;101774.94;5089105;27;47167;-70
2023/04/18 04:12:42;;;;;;;;;63.25;49.25;;;;;11.46;62.75;101767.88;5073562;28;45560;-68
2023/04/18 04:15:08;;;;;;;;;65.50;47.75;;;;;11.51;63.46;101769.66;5089355;27;45324;-68
2023/04/18 04:17:34;;;;;;;;;71.25;51.75;;;;;11.46;63.24;101759.16;5089319;27;45431;-71
2023/04/18 04:20:01;;;;;;;;;67.75;50.00;;;;;11.42;63.47;101754.69;5076735;28;46539;-68
2023/04/18 04:22:26;;;;;;;;;60.50;46.75;;;;;11.43;63.45;101765.19;5073762;28;45491;-67
2023/04/18 04:24:52;;;;;;;;;60.75;46.50;;;;;11.42;63.45;101759.94;5089405;27;45467;-68
2023/04/18 04:27:19;;;;;;;;;64.25;50.00;;;;;11.43;63.71;101762.56;5091931;27;45510;-72
2023/04/18 04:29:44;;;;;;;;;68.25;49.50;;;;;11.44;63.05;101769.59;5077856;27;45325;-71
2023/04/18 04:32:11;;;;;;;;;67.50;52.00;;;;;11.33;63.58;101746.69;5071851;27;45487;-66
2023/04/18 04:34:40;;;;;;;;;71.25;53.00;;;;;11.37;63.59;101759.88;5089077;27;45444;-70
2023/04/18 04:37:06;;;;;;;;;67.00;51.00;;;;;11.35;63.89;101764.22;5073913;27;45566;-69
2023/04/18 04:39:32;;;;;;;;;72.00;54.00;;;;;11.34;63.92;101762.47;5074759;28;45625;-68
2023/04/18 04:42:03;;;;;;;;;70.00;51.25;;;;;11.37;63.70;101767.75;5073915;28;45378;-72
2023/04/18 04:44:30;;;;;;;;;68.75;51.50;;;;;11.35;63.87;101764.22;5092725;27;45387;-70
2023/04/18 04:46:56;;;;;;;;;66.25;49.00;;;;;11.29;63.92;101756.25;5078046;28;45369;-67
2023/04/18 04:49:22;;;;;;;;;61.75;49.00;;;;;11.28;64.20;101761.47;5075227;28;45827;-72
2023/04/18 04:51:48;;;;;;;;;69.75;52.75;;;;;11.31;64.42;101766.75;5076736;27;45513;-71
2023/04/18 04:54:13;;;;;;;;;67.00;52.50;;;;;11.31;64.59;101770.25;5076653;28;45982;-70
2023/04/18 04:56:39;;;;;;;;;69.25;49.75;;;;;11.30;64.46;101765.88;5065692;28;45528;-68
2023/04/18 04:59:04;;;;;;;;;67.00;49.00;;;;;11.31;64.34;101764.13;5096116;27;47085;-71
2023/04/18 05:01:30;;;;;;;;;63.50;50.00;;;;;11.29;64.82;101761.47;5076379;28;45422;-70
2023/04/18 05:03:56;;;;;;;;;66.75;51.00;;;;;11.29;64.25;101766.72;5077291;27;45470;-67
2023/04/18 05:06:21;;;;;;;;;69.75;52.00;;;;;11.26;64.42;101761.44;5076707;28;45456;-68
2023/04/18 05:08:47;;;;;;;;;66.00;50.50;;;;;11.20;64.81;101751.75;5091326;27;47412;-69
2023/04/18 05:11:13;;;;;;;;;76.50;58.00;;;;;11.18;64.62;101753.47;5075028;28;45497;-68
2023/04/18 05:13:39;;;;;;;;;71.00;53.50;;;;;11.26;65.03;101771.94;5091938;27;45521;-73
2023/04/18 05:16:06;;;;;;;;;72.00;54.75;;;;;11.22;65.30;101762.25;5076215;28;45515;-67
2023/04/18 05:18:32;;;;;;;;;68.00;52.50;;;;;11.21;64.78;101761.38;5076127;27;46353;-71
2023/04/18 05:20:57;;;;;;;;;70.25;52.75;;;;;11.24;64.89;101766.66;5076487;27;45462;-69
2023/04/18 05:23:23;;;;;;;;;70.75;53.50;;;;;11.24;64.81;101769.28;5074770;28;45440;-70
2023/04/18 05:25:49;;;;;;;;;68.75;53.00;;;;;11.22;65.29;101763.16;5078949;28;45288;-67
2023/04/18 05:28:14;;;;;;;;;66.75;51.25;;;;;11.23;65.04;101770.16;5075500;27;47384;-70
2023/04/18 05:30:40;;;;;;;;;70.00;51.50;;;;;11.26;65.22;101769.31;5075995;27;45315;-70
2023/04/18 05:33:06;;;;;;;;;67.00;49.50;;;;;11.22;64.47;101765.78;5067936;27;45547;-70
2023/04/18 05:35:32;;;;;;;;;69.75;53.50;;;;;11.31;65.14;101772.00;5076669;27;45452;-72
2023/04/18 05:37:58;;;;;;;;;74.00;54.75;;;;;11.34;64.92;101770.34;5075465;28;45505;-66
2023/04/18 05:40:24;;;;;;;;;70.75;53.00;;;;;11.31;65.01;101774.63;5061765;27;45402;-69
2023/04/18 05:42:49;;;;;;;;;70.00;50.25;;;;;11.37;64.50;101779.97;5066825;27;46204;-66
2023/04/18 05:45:15;;;;;;;;;73.00;55.50;;;;;11.36;64.92;101778.19;5088694;27;45504;-67
2023/04/18 05:47:41;;;;;;;;;67.25;52.25;;;;;11.44;64.51;101784.47;5054355;27;46321;-67
2023/04/18 05:50:07;;;;;;;;;68.25;52.00;;;;;11.40;64.49;101767.78;5092859;27;45394;-69
2023/04/18 05:52:33;;;;;;;;;68.25;51.00;;;;;11.49;64.02;101768.78;5073505;27;45511;-69
2023/04/18 05:54:58;;;;;;;;;67.50;50.75;;;;;11.46;63.96;101757.41;5063995;27;45586;-66
2023/04/18 05:57:24;;;;;;;;;73.00;54.00;;;;;11.67;63.83;101779.53;5096617;27;46735;-69
2023/04/18 05:59:50;;;;;;;;;77.50;57.00;;;;;11.67;64.19;101777.81;5074848;28;45342;-67
2023/04/18 06:02:15;;;;;;;;;73.75;54.75;;;;;11.68;63.92;101771.69;5070939;27;45795;-70
2023/04/18 06:04:41;;;;;;;;;75.00;54.75;;;;;11.76;63.53;101782.28;5070044;27;45398;-68
2023/04/18 06:07:08;;;;;;;;;67.00;52.00;;;;;11.83;63.44;101781.50;5067911;27;46592;-71
2023/04/18 06:09:34;;;;;;;;;69.50;54.25;;;;;11.85;63.42;101777.16;5065715;27;45448;-67
2023/04/18 06:12:00;;;;;;;;;72.50;52.25;;;;;11.92;63.62;101777.28;5058376;27;45469;-67
2023/04/18 06:14:26;;;;;;;;;73.75;54.00;;;;;12.03;63.06;101779.19;5065596;27;45595;-68
2023/04/18 06:16:55;;;;;;;;;72.50;54.25;;;;;12.09;62.51;101783.63;5069872;27;46717;-71
2023/04/18 06:19:21;;;;;;;;;72.50;53.50;;;;;12.15;62.60;101781.09;5069514;28;45586;-70
2023/04/18 06:21:47;;;;;;;;;68.00;50.25;;;;;12.18;62.15;101781.13;5063179;27;45583;-69
2023/04/18 06:24:13;;;;;;;;;70.75;51.00;;;;;12.24;61.58;101764.53;5059713;27;45693;-68
2023/04/18 06:26:39;;;;;;;;;63.75;49.75;;;;;12.34;61.92;101781.28;5056816;27;45432;-68
2023/04/18 06:29:04;;;;;;;;;65.00;51.50;;;;;12.45;61.41;101777.03;5056812;27;46585;-69
2023/04/18 06:31:30;;;;;;;;;68.75;49.75;;;;;12.49;61.17;101776.22;5058933;27;45477;-67
2023/04/18 06:33:56;;;;;;;;;72.50;52.75;;;;;12.60;61.34;101782.47;5055378;27;45470;-70
2023/04/18 06:36:21;;;;;;;;;67.25;51.25;;;;;12.58;60.65;101760.56;5061697;27;45517;-67
2023/04/18 06:38:47;;;;;;;;;69.00;51.50;;;;;12.69;60.88;101774.69;5071626;28;45578;-68
2023/04/18 06:41:15;;;;;;;;;68.00;50.00;;;;;12.57;60.85;101769.28;5079337;27;45501;-68
2023/04/18 06:43:41;;;;;;;;;69.75;52.50;;;;;12.64;60.66;101772.88;5058156;27;45496;-66
2023/04/18 06:46:07;;;;;;;;;67.50;51.00;;;;;12.67;60.58;101771.16;5065694;27;46847;-70
2023/04/18 06:48:33;;;;;;;;;64.75;51.00;;;;;12.68;60.31;101772.91;5102169;27;45348;-72
2023/04/18 06:50:58;;;;;;;;;68.00;51.50;;;;;12.63;60.77;101763.22;5068204;27;45580;-67
2023/04/18 06:53:24;;;;;;;;;69.25;51.50;;;;;12.68;60.01;101759.78;5066846;27;45517;-70
2023/04/18 06:55:49;;;;;;;;;70.50;51.00;;;;;12.87;60.06;101770.47;5088520;27;46674;-70
2023/04/18 06:58:15;;;;;;;;;64.50;50.25;;;;;13.01;59.20;101774.09;5070521;27;45613;-70
2023/04/18 07:00:42;;;;;;;;;74.75;52.00;;;;;13.08;59.51;101773.28;5055778;28;45455;-67
2023/04/18 07:03:11;;;;;;;;;71.50;51.50;;;;;13.14;58.97;101768.09;5054827;27;45497;-71
2023/04/18 07:05:38;;;;;;;;;69.25;53.25;;;;;13.18;58.93;101771.59;5069149;27;47394;-70
2023/04/18 07:08:03;;;;;;;;;67.75;51.25;;;;;13.16;59.12;101761.06;5065362;27;45621;-68
2023/04/18 07:10:29;;;;;;;;;71.25;51.25;;;;;13.05;58.98;101762.75;5059976;27;45548;-69
2023/04/18 07:12:54;;;;;;;;;67.75;50.75;;;;;13.04;58.62;101763.59;5073235;27;45416;-66
2023/04/18 07:15:20;;;;;;;;;64.25;50.00;;;;;13.07;59.09;101774.13;5088140;27;47034;-67
2023/04/18 07:17:46;;;;;;;;;65.25;51.50;;;;;13.13;58.85;101775.94;5051913;28;45439;-70
2023/04/18 07:20:12;;;;;;;;;78.25;60.75;;;;;13.23;58.63;101774.25;5053546;27;45342;-70
2023/04/18 07:22:37;;;;;;;;;73.00;52.50;;;;;13.22;58.60;101756.75;5054004;27;45400;-68
2023/04/18 07:25:03;;;;;;;;;70.75;54.00;;;;;13.34;58.43;101772.63;5053932;27;45499;-72
2023/04/18 07:27:29;;;;;;;;;67.75;52.50;;;;;13.33;58.72;101781.38;5054698;27;45797;-66
2023/04/18 07:29:58;;;;;;;;;65.25;51.00;;;;;13.41;58.39;101771.81;5057255;28;45465;-67
2023/04/18 07:32:23;;;;;;;;;70.75;52.50;;;;;13.51;57.96;101772.75;5054117;27;45619;-67
2023/04/18 07:34:50;;;;;;;;;65.75;49.00;;;;;13.60;57.90;101761.41;5052073;27;46745;-73
2023/04/18 07:37:17;;;;;;;;;63.75;49.50;;;;;13.77;57.47;101776.41;5068956;27;45779;-68
2023/04/18 07:39:43;;;;;;;;;67.25;52.50;;;;;13.70;57.45;101740.38;5054069;28;45727;-73
2023/04/18 07:42:10;;;;;;;;;69.75;52.75;;;;;13.78;56.75;101730.75;5058411;27;45416;-72
2023/04/18 07:44:35;;;;;;;;;68.25;51.25;;;;;13.90;56.95;101747.50;5060183;28;45473;-72
2023/04/18 07:47:02;;;;;;;;;68.25;51.75;;;;;13.94;57.09;101755.41;5074236;27;45854;-74
2023/04/18 07:49:28;;;;;;;;;80.50;57.75;;;;;13.98;56.91;101759.84;5074506;27;45637;-68
2023/04/18 07:51:54;;;;;;;;;73.50;55.50;;;;;13.96;56.31;101744.91;5074359;27;45975;-71
2023/04/18 07:54:20;;;;;;;;;69.25;53.00;;;;;14.11;56.54;101752.84;5089707;27;45587;-68
2023/04/18 07:56:45;;;;;;;;;78.00;57.00;;;;;14.27;56.41;101755.56;5076611;28;45640;-71
2023/04/18 07:59:11;;;;;;;;;74.00;54.50;;;;;14.35;55.88;101759.94;5078645;28;45448;-67
2023/04/18 08:01:36;;;;;;;;;74.50;54.75;;;;;14.53;55.17;101755.63;5076838;27;45437;-68
2023/04/18 08:04:02;;;;;;;;;72.00;54.00;;;;;14.62;54.43;101742.50;5073624;28;46101;-72
2023/04/18 08:06:28;;;;;;;;;74.75;56.00;;;;;14.69;54.59;101749.53;5073911;28;45487;-67
2023/04/18 08:08:53;;;;;;;;;67.75;51.75;;;;;14.79;54.01;101756.56;5073516;27;45782;-68
2023/04/18 08:11:19;;;;;;;;;71.00;51.00;;;;;14.90;53.63;101753.03;5089386;27;45536;-69
2023/04/18 08:13:45;;;;;;;;;73.75;54.25;;;;;14.98;53.14;101748.66;5073473;28;46926;-70
2023/04/18 08:16:10;;;;;;;;;66.75;47.25;;;;;14.99;53.48;101737.22;5088560;27;45502;-68
2023/04/18 08:18:36;;;;;;;;;61.75;47.75;;;;;15.11;53.09;101741.59;5073017;27;45421;-67
2023/04/18 08:21:01;;;;;;;;;62.00;50.50;;;;;15.13;52.86;101745.13;5073748;28;45428;-73
2023/04/18 08:23:27;;;;;;;;;71.25;53.75;;;;;15.17;52.74;101749.53;5075709;28;45639;-68
2023/04/18 08:25:52;;;;;;;;;65.75;48.50;;;;;15.15;52.61;101740.72;5077320;27;45343;-72
2023/04/18 08:28:18;;;;;;;;;65.75;49.00;;;;;15.21;52.16;101738.06;5074104;28;45446;-72
2023/04/18 08:30:47;;;;;;;;;58.50;46.00;;;;;15.32;52.25;101738.06;5073614;27;45438;-66
2023/04/18 08:33:13;;;;;;;;;66.50;51.00;;;;;15.32;52.48;101735.44;5073243;27;46079;-66
2023/04/18 08:35:39;;;;;;;;;63.75;48.00;;;;;15.36;52.24;101738.06;5073993;27;45430;-70
2023/04/18 08:38:05;;;;;;;;;63.50;50.25;;;;;15.48;51.52;101730.13;5073994;28;45542;-71
2023/04/18 08:40:30;;;;;;;;;73.00;54.75;;;;;15.52;51.75;101727.47;5074538;27;45461;-70
2023/04/18 08:42:57;;;;;;;;;67.50;53.00;;;;;15.58;51.06;101738.88;5077723;28;46544;-69
2023/04/18 08:45:23;;;;;;;;;68.75;52.25;;;;;15.56;51.44;101731.84;5077969;27;45293;-69
2023/04/18 08:47:48;;;;;;;;;71.25;53.25;;;;;15.46;51.36;101736.28;5089943;27;45425;-70
2023/04/18 08:50:15;;;;;;;;;71.50;52.25;;;;;15.35;52.15;101735.41;5089586;27;45515;-68
2023/04/18 08:52:47;;;;;;;;;70.25;51.75;;;;;15.43;51.57;101728.38;5105394;27;47916;-68
2023/04/18 08:55:13;;;;;;;;;63.25;49.75;;;;;15.45;51.26;101708.13;5069141;28;45314;-68
2023/04/18 08:57:38;;;;;;;;;61.00;47.75;;;;;15.55;51.34;101716.91;5063607;28;45414;-70
2023/04/18 09:00:10;;;;;;;;;65.00;52.00;;;;;15.59;50.78;101714.25;5073398;27;45442;-70
2023/04/18 09:02:41;;;;;;;;;64.75;48.50;;;;;15.69;50.80;101723.91;5073261;28;45642;-71
2023/04/18 09:05:11;;;;;;;;;63.00;46.75;;;;;15.78;50.67;101715.09;5077788;27;45506;-68
2023/04/18 09:07:37;;;;;;;;;73.00;52.75;;;;;15.73;50.14;101694.84;5077835;28;45297;-69
2023/04/18 09:10:03;;;;;;;;;69.00;53.00;;;;;15.78;49.66;101703.63;5078099;28;45614;-70
2023/04/18 09:12:28;;;;;;;;;69.00;53.00;;;;;15.78;49.35;101696.63;5077372;27;45459;-69
2023/04/18 09:15:10;;;;;;;;;61.00;49.00;;;;;15.88;49.85;101715.94;5074558;28;45440;-68
2023/04/18 09:17:40;;;;;;;;;57.50;47.25;;;;;15.93;49.81;101703.59;5088393;27;45358;-67
2023/04/18 09:20:10;;;;;;;;;69.00;51.00;;;;;15.99;49.50;101705.31;5073049;27;45324;-69
2023/04/18 09:22:46;;;;;;;;;72.25;54.25;;;;;15.88;48.90;101700.97;5070906;28;47195;-71
2023/04/18 09:25:36;;;;;;;;;65.00;50.25;;;;;15.86;49.63;101696.56;5072591;28;45651;-68
2023/04/18 09:28:22;;;;;;;;;68.00;50.00;;;;;15.87;49.14;101688.66;5073045;28;45506;-71
2023/04/18 09:30:53;;;;;;;;;68.75;51.00;;;;;15.96;49.05;101689.47;5074014;27;45700;-72
2023/04/18 09:33:27;;;;;;;;;71.50;55.25;;;;;16.00;48.97;101699.16;5075866;27;45660;-70
2023/04/18 09:35:56;;;;;;;;;67.75;52.50;;;;;16.03;48.95;101699.13;5079133;27;45417;-73
2023/04/18 09:38:39;;;;;;;;;66.25;49.00;;;;;16.11;49.26;101690.28;5080624;28;45455;-70
2023/04/18 09:41:09;;;;;;;;;63.25;48.50;;;;;16.25;48.77;101686.66;5092140;27;45366;-69
2023/04/18 09:43:34;;;;;;;;;67.75;52.25;;;;;16.38;48.54;101684.84;5091840;27;46121;-70
2023/04/18 09:46:02;;;;;;;;;69.50;53.50;;;;;16.36;48.33;101679.53;5076302;28;45350;-70
2023/04/18 09:48:28;;;;;;;;;67.50;49.75;;;;;16.36;48.14;101683.97;5109293;27;45831;-67
2023/04/18 09:50:54;;;;;;;;;57.75;44.25;;;;;16.53;47.79;101680.28;5074300;28;45573;-66
2023/04/18 09:53:20;;;;;;;;;72.00;54.00;;;;;16.61;47.81;101682.00;5076412;28;45480;-68
2023/04/18 09:55:53;;;;;;;;;70.00;53.25;;;;;16.58;46.39;101671.44;5067249;28;45472;-69
2023/04/18 09:58:21;;;;;;;;;58.25;47.00;;;;;16.72;46.44;101669.56;5074364;28;45484;-69
2023/04/18 10:00:49;;;;;;;;;65.75;48.50;;;;;16.72;46.44;101646.63;5096355;27;45538;-71
2023/04/18 10:03:17;;;;;;;;;54.00;44.75;;;;;16.91;46.53;101665.03;5080039;27;45514;-72
2023/04/18 10:05:44;;;;;;;;;57.00;44.50;;;;;16.99;47.16;101649.06;5075928;27;45503;-70
2023/04/18 10:08:12;;;;;;;;;58.75;45.00;;;;;17.00;47.35;101637.59;5076677;27;45511;-73
2023/04/18 10:10:38;;;;;;;;;71.50;51.75;;;;;16.99;45.31;101657.91;5077834;28;45659;-69
2023/04/18 10:13:07;;;;;;;;;61.25;48.75;;;;;16.83;47.08;101656.28;5075433;28;45352;-67
2023/04/18 10:15:33;;;;;;;;;53.75;41.75;;;;;16.99;47.43;101636.72;5074075;28;45815;-74
2023/04/18 10:18:01;;;;;;;;;65.50;49.25;;;;;17.22;46.48;101643.53;5074489;27;45655;-67
2023/04/18 10:20:29;;;;;;;;;65.50;50.25;;;;;17.24;46.02;101649.69;5092199;27;45394;-67
2023/04/18 10:22:56;;;;;;;;;63.75;49.50;;;;;17.37;45.47;101641.59;5078574;28;47998;-70
2023/04/18 10:25:36;;;;;;;;;63.00;47.00;;;;;17.61;44.77;101631.59;5080148;27;45579;-70
2023/04/18 10:28:04;;;;;;;;;62.00;46.50;;;;;17.78;43.85;101637.53;5076507;27;45377;-70
2023/04/18 10:30:49;;;;;;;;;49.25;37.75;;;;;17.89;44.34;101636.53;5078110;28;45928;-69
2023/04/18 10:33:31;;;;;;;;;62.00;46.25;;;;;17.89;43.00;101624.19;5056423;28;46295;-73
2023/04/18 10:35:58;;;;;;;;;57.00;44.25;;;;;17.90;44.62;101628.56;5076692;28;45684;-72
2023/04/18 10:38:24;;;;;;;;;64.50;50.25;;;;;17.93;42.83;101617.94;5078034;27;45335;-73
2023/04/18 10:40:50;;;;;;;;;63.25;48.50;;;;;17.97;43.75;101614.34;5079275;27;45377;-76
2023/04/18 10:43:15;;;;;;;;;57.50;43.50;;;;;18.26;44.84;101614.81;5078126;27;46232;-69
2023/04/18 10:45:41;;;;;;;;;64.50;48.00;;;;;18.17;42.74;101584.00;5072327;27;45566;-70
2023/04/18 10:48:28;;;;;;;;;56.00;41.75;;;;;18.41;42.95;101611.88;5053888;28;45521;-71
2023/04/18 10:51:17;;;;;;;;;53.75;43.50;;;;;18.34;39.51;101604.94;5066789;27;45500;-67
2023/04/18 10:53:50;;;;;;;;;60.00;46.50;;;;;18.11;39.86;101618.56;5074693;27;45463;-67
2023/04/18 10:56:16;;;;;;;;;56.00;42.75;;;;;18.05;39.28;101613.34;5061726;28;45370;-73
2023/04/18 10:58:48;;;;;;;;;53.00;42.25;;;;;17.89;39.76;101596.78;5079238;27;45749;-67
2023/04/18 11:01:17;;;;;;;;;50.50;40.75;;;;;17.80;41.46;101611.03;5055541;27;45382;-67
2023/04/18 11:03:43;;;;;;;;;49.75;41.75;;;;;17.85;39.69;101582.72;5066713;27;46160;-67
2023/04/18 11:06:12;;;;;;;;;49.50;39.25;;;;;18.02;39.37;101598.38;5087563;27;45616;-69
2023/04/18 11:08:38;;;;;;;;;55.50;42.75;;;;;18.08;39.57;101606.25;5057284;27;45579;-70